Time;durP1;ratioP1;P1;durP2;ratioP2;P2;SDS_P1;SDS_P2;PMS_P1;PMS_P2;Temp;Humidity;BMP_temperature;BMP_pressure;BME280_temperature;BME280_humidity;BME280_pressure;Samples;Min_cycle;Max_cycle;Signal;HPM_P1;HPM_P2
2023/06/25 00:00:08;;;;;;;4.55;2.35;;;;;;;26.30;41.15;101727.50;4937931;28;20122;-63
2023/06/25 00:02:33;;;;;;;3.97;2.00;;;;;;;26.26;40.69;101726.22;4937872;28;20086;-62
2023/06/25 00:04:59;;;;;;;2.72;1.73;;;;;;;26.24;41.44;101722.84;4955084;28;20027;-62
2023/06/25 00:07:24;;;;;;;4.65;2.38;;;;;;;26.21;41.06;101723.25;4954091;28;20071;-62
2023/06/25 00:09:56;;;;;;;4.18;2.35;;;;;;;26.20;41.17;101716.06;4953600;28;20029;-62
2023/06/25 00:12:22;;;;;;;6.15;2.28;;;;;;;26.17;41.47;101720.06;4954953;28;20019;-62
2023/06/25 00:14:48;;;;;;;4.40;1.88;;;;;;;26.15;41.41;101710.34;4953730;28;20050;-62
2023/06/25 00:17:17;;;;;;;5.30;2.20;;;;;;;26.14;41.20;101703.16;4969943;28;20055;-63
2023/06/25 00:19:43;;;;;;;6.30;2.20;;;;;;;26.12;41.21;101708.84;4969449;28;20067;-63
2023/06/25 00:22:11;;;;;;;6.22;2.60;;;;;;;26.11;41.18;101707.13;4937979;29;20090;-62
2023/06/25 00:24:40;;;;;;;6.55;2.55;;;;;;;26.11;41.80;101709.03;4955379;28;20050;-63
2023/06/25 00:27:06;;;;;;;6.30;2.47;;;;;;;26.08;41.54;101706.72;4937843;29;20046;-62
2023/06/25 00:29:32;;;;;;;5.47;2.72;;;;;;;26.02;41.76;101706.50;4969660;28;20027;-62
2023/06/25 00:31:58;;;;;;;3.95;2.42;;;;;;;25.98;41.98;101701.63;4953610;28;20066;-62
2023/06/25 00:34:23;;;;;;;3.50;2.15;;;;;;;25.98;42.28;101701.63;4969392;28;20173;-62
2023/06/25 00:36:52;;;;;;;4.18;2.47;;;;;;;25.95;42.21;101702.91;4937414;28;20031;-64
2023/06/25 00:39:20;;;;;;;6.78;2.30;;;;;;;25.91;41.90;101696.13;4953442;28;20035;-62
2023/06/25 00:41:48;;;;;;;2.95;2.17;;;;;;;25.87;42.18;101689.38;4953637;28;20032;-63
2023/06/25 00:44:13;;;;;;;3.53;2.10;;;;;;;25.85;42.37;101690.63;4953862;28;20115;-62
2023/06/25 00:46:39;;;;;;;3.65;2.33;;;;;;;25.83;42.28;101692.72;4937505;28;20122;-62
2023/06/25 00:49:07;;;;;;;6.70;2.92;;;;;;;25.81;42.37;101698.44;4952419;28;20042;-62
2023/06/25 00:51:35;;;;;;;3.30;2.42;;;;;;;25.78;42.50;101682.38;4938339;28;20028;-61
2023/06/25 00:54:04;;;;;;;4.82;2.55;;;;;;;25.74;42.26;101681.09;4937614;29;20031;-62
2023/06/25 00:56:31;;;;;;;4.35;2.42;;;;;;;25.71;42.28;101678.75;4969567;28;20039;-63
2023/06/25 00:59:00;;;;;;;5.20;2.55;;;;;;;25.72;42.33;101685.09;4954745;28;20348;-64
2023/06/25 01:01:40;;;;;;;3.95;2.22;;;;;;;25.68;42.72;101670.97;4937557;29;20031;-62
2023/06/25 01:04:33;;;;;;;3.72;2.42;;;;;;;25.62;42.81;101674.53;4953294;28;20031;-62
2023/06/25 01:07:02;;;;;;;7.50;2.92;;;;;;;25.59;42.50;101674.94;4951743;28;20119;-62
2023/06/25 01:09:30;;;;;;;5.22;2.35;;;;;;;25.57;43.08;101671.56;4937567;29;20043;-63
2023/06/25 01:12:03;;;;;;;3.85;2.78;;;;;;;25.55;42.98;101668.16;4953688;28;20043;-62
2023/06/25 01:14:29;;;;;;;3.88;2.47;;;;;;;25.51;42.56;101669.66;4951648;28;20103;-62
2023/06/25 01:16:55;;;;;;;8.20;3.35;;;;;;;25.51;42.64;101666.91;4969175;28;20040;-61
2023/06/25 01:19:25;;;;;;;6.22;2.60;;;;;;;25.49;42.79;101666.25;4921198;29;20074;-62
2023/06/25 01:21:52;;;;;;;4.00;2.65;;;;;;;25.44;43.00;101668.72;4937469;29;20070;-62
2023/06/25 01:24:17;;;;;;;4.38;2.50;;;;;;;25.43;43.12;101664.31;4953153;28;20047;-62
2023/06/25 01:26:44;;;;;;;5.60;2.58;;;;;;;25.40;42.95;101661.97;4937169;28;20054;-62
2023/06/25 01:29:09;;;;;;;5.32;2.50;;;;;;;25.36;43.31;101660.69;4921557;29;20503;-62
2023/06/25 01:31:35;;;;;;;2.85;2.03;;;;;;;25.34;43.23;101660.06;4937533;28;20039;-62
2023/06/25 01:34:00;;;;;;;7.93;2.30;;;;;;;25.32;43.24;101656.69;4956708;28;20392;-62
2023/06/25 01:36:26;;;;;;;8.27;2.63;;;;;;;25.30;42.99;101664.25;4940712;28;20094;-61
2023/06/25 01:38:51;;;;;;;10.18;2.80;;;;;;;25.27;43.63;101653.69;4940310;29;20046;-61
2023/06/25 01:41:17;;;;;;;5.63;2.50;;;;;;;25.23;43.30;101649.66;4957607;28;20091;-62
2023/06/25 01:43:42;;;;;;;3.25;2.17;;;;;;;25.22;43.62;101647.97;4940314;29;20042;-63
2023/06/25 01:46:08;;;;;;;6.05;2.45;;;;;;;25.19;43.67;101634.66;4970888;28;20039;-63
2023/06/25 01:48:33;;;;;;;3.50;2.22;;;;;;;25.16;43.67;101629.59;4954388;28;20043;-62
2023/06/25 01:50:58;;;;;;;8.32;2.25;;;;;;;25.14;44.08;101637.19;4937339;28;20031;-62
2023/06/25 01:53:24;;;;;;;3.88;2.40;;;;;;;25.10;43.77;101639.47;4905578;29;20042;-62
2023/06/25 01:55:49;;;;;;;7.70;2.47;;;;;;;25.09;43.78;101624.09;4921043;28;20496;-62
2023/06/25 01:58:14;;;;;;;10.20;2.53;;;;;;;25.06;43.64;101627.25;4936752;28;20056;-63
2023/06/25 02:00:41;;;;;;;6.30;2.60;;;;;;;25.06;44.29;101623.66;4938076;28;20035;-62
2023/06/25 02:03:06;;;;;;;5.70;3.17;;;;;;;25.03;43.65;101621.31;4936292;28;20043;-62
2023/06/25 02:05:32;;;;;;;4.93;2.50;;;;;;;25.00;43.78;101614.34;4936746;29;20036;-61
2023/06/25 02:07:57;;;;;;;8.10;2.72;;;;;;;24.97;43.94;101614.75;4937921;28;20044;-62
2023/06/25 02:10:23;;;;;;;4.63;3.10;;;;;;;24.96;44.15;101614.97;4937808;28;20092;-61
2023/06/25 02:12:48;;;;;;;6.53;2.95;;;;;;;24.94;44.50;101626.13;4920933;28;20031;-63
2023/06/25 02:15:14;;;;;;;6.22;2.40;;;;;;;24.92;44.48;101627.38;4938859;28;20127;-61
2023/06/25 02:17:39;;;;;;;7.18;3.10;;;;;;;24.88;44.64;101621.44;4936607;28;20043;-63
2023/06/25 02:20:06;;;;;;;3.97;2.65;;;;;;;24.86;44.82;101624.41;4920917;29;20048;-62
2023/06/25 02:22:31;;;;;;;6.38;2.72;;;;;;;24.84;44.20;101626.50;4936461;28;20098;-61
2023/06/25 02:24:57;;;;;;;5.57;3.05;;;;;;;24.81;44.42;101615.09;4936448;28;20035;-62
2023/06/25 02:27:22;;;;;;;6.43;2.90;;;;;;;24.79;44.25;101623.50;4936367;28;20583;-62
2023/06/25 02:29:47;;;;;;;5.53;2.47;;;;;;;24.76;44.34;101607.44;4936951;28;20032;-63
2023/06/25 02:32:13;;;;;;;5.53;2.80;;;;;;;24.75;44.74;101611.25;4937582;28;20036;-62
2023/06/25 02:34:38;;;;;;;8.73;3.55;;;;;;;24.73;44.07;101607.88;4936304;28;20046;-62
2023/06/25 02:37:16;;;;;;;8.07;2.92;;;;;;;24.71;44.61;101607.19;4952219;28;20040;-63
2023/06/25 02:39:42;;;;;;;4.95;3.15;;;;;;;24.67;44.45;101597.72;4939094;28;20048;-62
2023/06/25 02:42:07;;;;;;;3.38;2.30;;;;;;;24.65;44.69;101599.78;4939140;28;20042;-62
2023/06/25 02:44:33;;;;;;;4.53;2.22;;;;;;;24.64;44.53;101598.13;4939212;28;20046;-62
2023/06/25 02:46:58;;;;;;;7.20;2.65;;;;;;;24.59;44.80;101595.13;4955278;28;20150;-62
2023/06/25 02:49:24;;;;;;;6.60;3.15;;;;;;;24.59;44.60;101595.13;4955356;28;20086;-61
2023/06/25 02:51:49;;;;;;;7.13;3.38;;;;;;;24.58;44.66;101593.44;4971259;28;20552;-62
2023/06/25 02:54:15;;;;;;;6.43;2.45;;;;;;;24.55;44.37;101593.84;4955208;28;20094;-62
2023/06/25 02:56:40;;;;;;;9.40;2.55;;;;;;;24.52;45.02;101599.72;4956046;28;20027;-62
2023/06/25 02:59:05;;;;;;;9.35;2.97;;;;;;;24.51;44.38;101597.19;4955519;28;20122;-62
2023/06/25 03:01:31;;;;;;;11.65;3.67;;;;;;;24.46;45.07;101589.56;4955536;28;20451;-62
2023/06/25 03:03:56;;;;;;;5.43;2.60;;;;;;;24.45;44.95;101587.03;4939998;28;20102;-61
2023/06/25 03:06:21;;;;;;;8.18;2.70;;;;;;;24.41;44.46;101585.72;4939968;28;20456;-63
2023/06/25 03:08:47;;;;;;;7.78;2.75;;;;;;;24.41;44.44;101589.31;4939976;28;20061;-62
2023/06/25 03:11:12;;;;;;;9.43;2.70;;;;;;;24.40;44.57;101595.00;4956956;28;20479;-62
2023/06/25 03:13:37;;;;;;;6.43;2.47;;;;;;;24.37;45.44;101593.53;4940192;28;20063;-61
2023/06/25 03:16:03;;;;;;;9.10;2.65;;;;;;;24.36;45.46;101586.34;4955113;28;20584;-62
2023/06/25 03:18:28;;;;;;;9.18;3.30;;;;;;;24.34;44.98;101586.53;4938980;28;20047;-62
2023/06/25 03:20:54;;;;;;;6.60;3.13;;;;;;;24.30;45.09;101581.66;4955688;28;20127;-61
2023/06/25 03:23:19;;;;;;;9.65;3.00;;;;;;;24.30;44.65;101589.88;4954285;28;20042;-61
2023/06/25 03:25:45;;;;;;;4.70;2.67;;;;;;;24.27;45.63;101587.53;4954684;28;20035;-62
2023/06/25 03:28:10;;;;;;;10.88;2.70;;;;;;;24.25;45.33;101584.16;4954417;28;20033;-62
2023/06/25 03:30:35;;;;;;;4.53;2.80;;;;;;;24.19;45.26;101574.00;4970705;28;20043;-61
2023/06/25 03:33:01;;;;;;;5.00;2.78;;;;;;;24.23;44.85;101578.03;4923181;28;20038;-62
2023/06/25 03:35:26;;;;;;;4.03;2.60;;;;;;;24.22;45.65;101576.34;4970523;28;20090;-61
2023/06/25 03:37:51;;;;;;;4.18;2.45;;;;;;;24.22;45.20;101565.41;4938123;28;20067;-62
2023/06/25 03:40:17;;;;;;;5.82;2.47;;;;;;;24.20;45.53;101564.75;4954346;28;20036;-63
2023/06/25 03:42:43;;;;;;;8.75;2.88;;;;;;;24.22;45.61;101570.88;4954297;28;20035;-61
2023/06/25 03:45:08;;;;;;;6.60;2.58;;;;;;;24.20;45.36;101568.31;4954584;28;20039;-63
2023/06/25 03:47:34;;;;;;;3.85;2.17;;;;;;;24.22;45.51;101570.88;4938330;28;20040;-61
2023/06/25 03:49:59;;;;;;;8.70;2.92;;;;;;;24.21;45.06;101564.53;4954537;28;20031;-61
2023/06/25 03:52:25;;;;;;;7.13;2.85;;;;;;;24.21;45.25;101560.94;4955285;28;20038;-62
2023/06/25 03:54:50;;;;;;;8.55;2.88;;;;;;;24.20;45.60;101562.00;4954110;28;20488;-62
2023/06/25 03:57:15;;;;;;;8.45;3.75;;;;;;;24.21;45.78;101563.69;4954079;28;20039;-62
2023/06/25 03:59:41;;;;;;;7.88;2.53;;;;;;;24.21;45.41;101564.53;4938280;29;20514;-62
2023/06/25 04:02:07;;;;;;;4.80;2.40;;;;;;;24.20;45.44;101564.75;4954497;28;20118;-62
2023/06/25 04:04:32;;;;;;;5.32;2.67;;;;;;;24.22;46.08;101570.88;4923339;29;20047;-61
2023/06/25 04:06:58;;;;;;;10.75;3.38;;;;;;;24.21;46.09;101572.75;4971623;28;20031;-61
2023/06/25 04:09:23;;;;;;;7.03;3.42;;;;;;;24.21;45.57;101566.44;4956269;28;20069;-62
2023/06/25 04:11:48;;;;;;;8.80;3.00;;;;;;;24.23;45.71;101572.56;4938554;28;20038;-62
2023/06/25 04:14:14;;;;;;;13.65;2.65;;;;;;;24.27;45.68;101565.63;4955139;28;20541;-62
2023/06/25 04:16:39;;;;;;;4.95;3.30;;;;;;;24.30;45.55;101562.50;4954382;28;20103;-62
2023/06/25 04:19:04;;;;;;;8.88;2.78;;;;;;;24.35;45.56;101570.94;4969645;28;20508;-62
2023/06/25 04:21:30;;;;;;;4.60;2.58;;;;;;;24.40;45.86;101573.91;4953691;28;20031;-62
2023/06/25 04:23:55;;;;;;;6.32;2.80;;;;;;;24.46;46.15;101572.28;4969623;28;20031;-62
2023/06/25 04:26:20;;;;;;;3.65;2.78;;;;;;;24.54;45.32;101567.47;4937492;29;20035;-62
2023/06/25 04:28:46;;;;;;;6.55;3.33;;;;;;;24.62;45.61;101567.31;4953498;28;20384;-61
2023/06/25 04:31:11;;;;;;;6.00;2.47;;;;;;;24.69;45.85;101568.19;4937488;29;20036;-63
2023/06/25 04:33:41;;;;;;;5.20;2.83;;;;;;;24.81;46.04;101574.84;4954872;28;20039;-62
2023/06/25 04:36:07;;;;;;;4.57;2.47;;;;;;;24.87;45.88;101565.78;4953674;28;20041;-62
2023/06/25 04:38:33;;;;;;;6.70;2.58;;;;;;;24.99;45.66;101563.28;4954799;28;20038;-62
2023/06/25 04:40:59;;;;;;;4.18;2.75;;;;;;;25.10;45.39;101559.13;4937920;29;20031;-62
2023/06/25 04:43:25;;;;;;;6.70;2.78;;;;;;;25.20;45.71;101562.31;4954417;28;20521;-62
2023/06/25 04:45:50;;;;;;;3.60;2.25;;;;;;;25.33;45.52;101565.06;4937898;29;20043;-63
2023/06/25 04:48:17;;;;;;;5.93;3.15;;;;;;;25.44;45.83;101561.72;4955068;28;20122;-62
2023/06/25 04:50:42;;;;;;;6.15;3.63;;;;;;;25.56;45.48;101562.84;4936746;29;20043;-63
2023/06/25 04:53:07;;;;;;;5.38;3.00;;;;;;;25.72;45.36;101565.16;4921828;29;20102;-63
2023/06/25 04:55:33;;;;;;;7.22;2.97;;;;;;;25.86;45.55;101566.88;4921969;29;20035;-63
2023/06/25 04:57:58;;;;;;;6.18;3.05;;;;;;;25.99;45.19;101566.84;4969291;28;20039;-63
2023/06/25 05:00:23;;;;;;;5.15;3.00;;;;;;;26.15;44.94;101576.59;4953544;28;20035;-64
2023/06/25 05:02:49;;;;;;;4.82;2.85;;;;;;;26.30;45.50;101568.16;4969351;28;20061;-63
2023/06/25 05:05:14;;;;;;;7.43;2.80;;;;;;;26.45;45.40;101568.72;4937430;28;20498;-63
2023/06/25 05:07:39;;;;;;;8.30;3.35;;;;;;;26.57;44.84;101565.13;4953949;28;20047;-63
2023/06/25 05:10:05;;;;;;;9.35;3.40;;;;;;;26.74;44.96;101570.97;4939498;29;20034;-64
2023/06/25 05:12:31;;;;;;;9.55;3.72;;;;;;;26.90;44.85;101569.66;4925245;28;20535;-63
2023/06/25 05:14:56;;;;;;;6.13;2.90;;;;;;;27.01;44.38;101563.47;4938817;29;20040;-64
2023/06/25 05:17:22;;;;;;;6.63;3.15;;;;;;;27.19;44.59;101572.69;4937594;28;20032;-63
2023/06/25 05:19:47;;;;;;;4.53;2.70;;;;;;;27.38;44.67;101567.31;4937562;28;20073;-63
2023/06/25 05:22:12;;;;;;;8.98;3.92;;;;;;;27.55;44.80;101568.50;4953396;28;20408;-63
2023/06/25 05:24:38;;;;;;;4.65;2.50;;;;;;;27.73;44.46;101565.78;4937466;28;20123;-63
2023/06/25 05:27:03;;;;;;;9.10;3.00;;;;;;;27.92;43.64;101563.97;4938764;28;20036;-64
2023/06/25 05:29:29;;;;;;;6.75;2.60;;;;;;;28.10;44.30;101566.78;4937280;28;20513;-63
2023/06/25 05:31:55;;;;;;;7.22;2.63;;;;;;;28.25;43.91;101559.03;4953570;28;20036;-64
2023/06/25 05:34:21;;;;;;;4.20;2.55;;;;;;;28.46;42.98;101560.47;4938479;28;20480;-63
2023/06/25 05:36:47;;;;;;;5.13;2.83;;;;;;;28.63;43.46;101564.34;4937490;28;20051;-63
2023/06/25 05:39:12;;;;;;;4.28;2.22;;;;;;;28.80;42.46;101557.16;4921314;28;20051;-63
2023/06/25 05:41:40;;;;;;;6.05;2.55;;;;;;;28.96;42.46;101559.25;4937193;28;20039;-64
2023/06/25 05:44:06;;;;;;;4.88;2.78;;;;;;;29.15;41.94;101565.56;4938377;28;20035;-63
2023/06/25 05:46:32;;;;;;;7.32;2.78;;;;;;;29.33;42.23;101560.91;4938259;28;20056;-64
2023/06/25 05:48:57;;;;;;;3.08;2.15;;;;;;;29.50;41.98;101568.53;4921372;28;20046;-63
2023/06/25 05:51:23;;;;;;;6.07;2.38;;;;;;;29.66;41.34;101556.78;4921238;28;20023;-63
2023/06/25 05:53:50;;;;;;;4.60;2.15;;;;;;;29.83;41.37;101563.34;4937205;28;20060;-63
2023/06/25 05:56:16;;;;;;;4.78;2.22;;;;;;;30.01;40.81;101557.72;4938312;28;20087;-63
2023/06/25 05:58:41;;;;;;;3.30;2.17;;;;;;;30.21;40.59;101555.41;4938835;28;20039;-63
2023/06/25 06:01:07;;;;;;;4.57;2.83;;;;;;;30.43;40.59;101556.50;4921514;29;20036;-63
2023/06/25 06:03:32;;;;;;;4.95;2.42;;;;;;;30.64;39.85;101552.28;4938506;28;20496;-63
2023/06/25 06:05:59;;;;;;;3.58;2.38;;;;;;;30.85;40.26;101557.16;4921383;28;20130;-63
2023/06/25 06:08:24;;;;;;;4.07;2.20;;;;;;;31.04;39.47;101558.72;4937976;28;20107;-63
2023/06/25 06:10:50;;;;;;;5.60;2.17;;;;;;;31.26;39.34;101560.78;4937913;28;20122;-63
2023/06/25 06:13:15;;;;;;;6.68;1.73;;;;;;;31.47;38.37;101560.94;4938000;28;20090;-64
2023/06/25 06:15:41;;;;;;;3.47;2.10;;;;;;;31.65;38.09;101549.63;4936183;28;20028;-63
2023/06/25 06:18:06;;;;;;;4.00;2.03;;;;;;;31.86;37.68;101552.72;4919900;29;20035;-63
2023/06/25 06:20:32;;;;;;;9.95;2.97;;;;;;;32.07;37.66;101549.22;4926051;28;20047;-63
2023/06/25 06:23:01;;;;;;;2.67;2.03;;;;;;;32.26;37.01;101548.69;4936501;29;20048;-62
2023/06/25 06:25:27;;;;;;;3.08;2.30;;;;;;;32.47;36.76;101544.25;4936644;28;20400;-62
2023/06/25 06:27:54;;;;;;;6.28;2.50;;;;;;;32.66;36.64;101548.47;4952289;28;20028;-62
2023/06/25 06:30:22;;;;;;;3.97;2.67;;;;;;;32.84;36.05;101545.34;4936539;28;20571;-62
2023/06/25 06:32:48;;;;;;;5.38;2.03;;;;;;;33.05;35.37;101545.59;4936309;28;20120;-62
2023/06/25 06:35:13;;;;;;;3.83;2.40;;;;;;;33.22;35.71;101549.16;4936250;28;20040;-63
2023/06/25 06:37:39;;;;;;;5.90;2.50;;;;;;;33.42;35.71;101541.84;4936190;28;20047;-63
2023/06/25 06:40:05;;;;;;;3.85;2.30;;;;;;;33.61;34.67;101544.28;4936321;28;20040;-61
2023/06/25 06:42:30;;;;;;;3.70;2.42;;;;;;;33.77;34.20;101533.03;4904550;29;20031;-63
2023/06/25 06:44:56;;;;;;;3.05;2.08;;;;;;;33.96;35.15;101537.06;4920354;28;20082;-64
2023/06/25 06:47:21;;;;;;;4.10;1.95;;;;;;;34.17;35.00;101537.25;4937242;28;20055;-63
2023/06/25 06:49:46;;;;;;;3.83;2.38;;;;;;;34.38;34.30;101539.03;4935998;28;20078;-62
2023/06/25 06:52:13;;;;;;;4.22;2.20;;;;;;;34.57;34.13;101534.72;4920116;29;20028;-62
2023/06/25 06:54:38;;;;;;;3.13;2.20;;;;;;;34.76;33.77;101535.91;4935932;28;20114;-62
2023/06/25 06:57:04;;;;;;;5.45;2.40;;;;;;;34.94;33.69;101541.00;4936028;28;20052;-62
2023/06/25 06:59:30;;;;;;;6.50;2.45;;;;;;;35.08;33.25;101532.97;4937281;28;20090;-62
2023/06/25 07:01:55;;;;;;;2.38;2.10;;;;;;;35.28;33.44;101537.75;4935122;28;20036;-63
2023/06/25 07:04:20;;;;;;;3.78;2.28;;;;;;;35.43;32.72;101529.44;4942559;29;20035;-62
2023/06/25 07:06:46;;;;;;;6.63;3.30;;;;;;;35.63;32.80;101541.47;4943902;29;20103;-64
2023/06/25 07:09:11;;;;;;;4.75;2.90;;;;;;;35.78;32.59;101529.47;4927979;29;20031;-62
2023/06/25 07:11:36;;;;;;;6.10;2.97;;;;;;;35.95;32.34;101527.22;4945556;28;20035;-62
2023/06/25 07:14:02;;;;;;;4.68;3.15;;;;;;;36.12;32.34;101527.78;4943980;28;20043;-63
2023/06/25 07:16:27;;;;;;;5.15;3.00;;;;;;;36.27;32.67;101534.47;4944262;29;20491;-64
2023/06/25 07:18:53;;;;;;;5.38;2.70;;;;;;;36.41;31.76;101535.50;4945466;28;20031;-63
2023/06/25 07:21:18;;;;;;;2.78;2.33;;;;;;;36.56;31.96;101532.72;4942740;28;20419;-64
2023/06/25 07:23:44;;;;;;;4.90;2.80;;;;;;;36.68;32.15;101533.22;4946963;29;20126;-62
2023/06/25 07:26:09;;;;;;;5.25;2.47;;;;;;;36.84;31.80;101534.00;4944825;28;20122;-63
2023/06/25 07:28:35;;;;;;;7.78;2.70;;;;;;;36.96;31.19;101531.69;4943128;28;20503;-62
2023/06/25 07:31:00;;;;;;;5.20;2.40;;;;;;;37.09;31.57;101536.69;4958866;28;20111;-61
2023/06/25 07:33:25;;;;;;;3.85;2.30;;;;;;;37.22;30.83;101536.03;4944341;29;20443;-63
2023/06/25 07:35:51;;;;;;;3.33;2.33;;;;;;;37.39;30.94;101530.88;4946250;28;20027;-63
2023/06/25 07:38:16;;;;;;;6.28;2.40;;;;;;;37.52;30.16;101535.03;4944264;28;20044;-62
2023/06/25 07:40:41;;;;;;;4.30;2.25;;;;;;;37.65;30.11;101532.41;4925074;28;20037;-62
2023/06/25 07:43:07;;;;;;;3.05;2.42;;;;;;;37.80;29.92;101534.22;4929765;29;20039;-61
2023/06/25 07:45:32;;;;;;;3.47;2.38;;;;;;;37.95;29.32;101528.50;4937540;28;20083;-63
2023/06/25 07:47:58;;;;;;;3.47;2.50;;;;;;;38.06;29.17;101524.47;4943166;29;20047;-62
2023/06/25 07:50:23;;;;;;;5.28;2.15;;;;;;;38.24;28.85;101531.31;4943474;29;20042;-63
2023/06/25 07:52:48;;;;;;;4.53;2.70;;;;;;;38.37;29.22;101531.44;4937538;28;20028;-63
2023/06/25 07:55:14;;;;;;;3.28;2.45;;;;;;;38.54;28.77;101521.72;4932894;29;20039;-63
2023/06/25 07:57:39;;;;;;;5.90;2.42;;;;;;;38.68;29.11;101522.66;4930993;28;20051;-62
2023/06/25 08:00:07;;;;;;;3.53;2.53;;;;;;;38.86;28.78;101528.31;4934424;28;20118;-63
2023/06/25 08:02:33;;;;;;;7.57;3.13;;;;;;;38.97;28.29;101524.28;4942284;29;20421;-62
2023/06/25 08:04:58;;;;;;;6.53;2.50;;;;;;;39.16;29.11;101527.06;4946012;28;20031;-63
2023/06/25 08:07:23;;;;;;;3.20;2.28;;;;;;;39.28;27.99;101521.84;4935923;29;20040;-63
2023/06/25 08:09:49;;;;;;;7.28;2.40;;;;;;;39.42;28.11;101517.16;4950552;28;20126;-62
2023/06/25 08:12:15;;;;;;;7.40;2.92;;;;;;;39.62;27.73;101530.00;4934635;29;20519;-62
2023/06/25 08:14:40;;;;;;;5.25;3.00;;;;;;;39.77;27.67;101529.78;4950634;28;20123;-61
2023/06/25 08:17:06;;;;;;;2.47;2.20;;;;;;;39.84;27.52;101524.59;4934759;29;20028;-62
2023/06/25 08:19:31;;;;;;;5.72;2.63;;;;;;;39.94;27.12;101521.63;4934324;28;20039;-62
2023/06/25 08:21:57;;;;;;;4.70;2.42;;;;;;;40.08;26.80;101527.28;4934574;29;20046;-62
2023/06/25 08:24:22;;;;;;;4.95;2.75;;;;;;;40.19;27.48;101522.31;4934734;29;20059;-61
2023/06/25 08:26:47;;;;;;;7.13;2.90;;;;;;;40.28;27.20;101526.06;4934718;29;20040;-62
2023/06/25 08:29:13;;;;;;;4.55;2.67;;;;;;;40.36;26.35;101523.38;4934584;29;20039;-62
2023/06/25 08:31:38;;;;;;;3.45;2.45;;;;;;;40.41;26.55;101517.63;4934713;29;20031;-62
2023/06/25 08:34:03;;;;;;;5.28;2.65;;;;;;;40.46;26.88;101506.28;4935771;29;20122;-62
2023/06/25 08:36:29;;;;;;;4.35;2.67;;;;;;;40.59;26.22;101513.94;4950432;28;20061;-62
2023/06/25 08:38:54;;;;;;;3.08;2.60;;;;;;;40.73;26.22;101515.88;4934358;28;20043;-62
2023/06/25 08:41:19;;;;;;;4.53;2.63;;;;;;;40.81;25.97;101501.09;4939016;29;20047;-61
2023/06/25 08:43:46;;;;;;;3.90;2.75;;;;;;;40.95;25.63;101510.34;4940795;28;20122;-63
2023/06/25 08:46:11;;;;;;;4.13;2.33;;;;;;;41.02;25.82;101500.34;4956784;28;20480;-62
2023/06/25 08:48:38;;;;;;;3.30;2.22;;;;;;;41.11;25.51;101503.22;4942021;29;20126;-62
2023/06/25 08:51:09;;;;;;;7.63;2.75;;;;;;;41.19;25.62;101502.47;4937395;28;20512;-62
2023/06/25 08:53:34;;;;;;;4.72;2.90;;;;;;;41.26;25.63;101497.25;4920833;29;20114;-61
2023/06/25 08:56:01;;;;;;;5.18;2.50;;;;;;;41.31;25.67;101499.94;4924684;29;20552;-63
2023/06/25 08:58:29;;;;;;;3.25;2.75;;;;;;;41.41;25.46;101493.22;4940643;29;20047;-62
2023/06/25 09:00:54;;;;;;;3.33;2.50;;;;;;;41.52;25.11;101489.00;4941857;29;20452;-62
2023/06/25 09:03:19;;;;;;;3.03;2.67;;;;;;;41.62;24.76;101488.75;4924815;29;20662;-61
2023/06/25 09:05:53;;;;;;;3.47;2.17;;;;;;;41.79;24.79;101495.38;4956498;28;20040;-61
2023/06/25 09:08:19;;;;;;;5.45;1.98;;;;;;;41.91;24.75;101486.31;4941788;29;20032;-62
2023/06/25 09:10:49;;;;;;;3.90;2.63;;;;;;;42.11;24.84;101487.72;4940726;29;20060;-62
2023/06/25 09:13:20;;;;;;;6.47;2.83;;;;;;;42.32;24.31;101484.06;4940698;29;20044;-62
2023/06/25 09:15:45;;;;;;;3.33;2.35;;;;;;;42.48;24.33;101478.78;4940291;29;20507;-62
2023/06/25 09:18:11;;;;;;;4.28;2.47;;;;;;;42.60;24.12;101476.19;4921482;29;20047;-62
2023/06/25 09:20:39;;;;;;;3.97;2.90;;;;;;;42.75;23.65;101484.16;4941396;29;20066;-61
2023/06/25 09:23:05;;;;;;;2.63;2.40;;;;;;;42.88;23.70;101480.34;4940080;28;20138;-62
2023/06/25 09:25:31;;;;;;;3.28;2.33;;;;;;;43.03;23.86;101478.25;4924470;28;20527;-62
2023/06/25 09:27:59;;;;;;;2.28;2.17;;;;;;;43.15;23.39;101482.06;4940383;28;20115;-61
2023/06/25 09:30:24;;;;;;;4.53;2.45;;;;;;;43.25;23.13;101483.72;4956115;28;20027;-61
2023/06/25 09:32:51;;;;;;;7.55;2.42;;;;;;;43.32;23.33;101479.25;4940311;28;20037;-62
2023/06/25 09:35:21;;;;;;;4.10;2.58;;;;;;;43.43;22.76;101476.94;4940324;28;20026;-61
2023/06/25 09:37:46;;;;;;;4.85;2.75;;;;;;;43.49;22.68;101478.44;4924694;28;20036;-61
2023/06/25 09:40:12;;;;;;;3.13;2.60;;;;;;;43.54;22.54;101478.25;4924604;28;20534;-62
2023/06/25 09:42:37;;;;;;;3.10;2.55;;;;;;;43.55;22.62;101470.59;4940407;28;20038;-62
2023/06/25 09:45:03;;;;;;;2.33;2.13;;;;;;;43.59;22.60;101474.41;4940700;28;20044;-62
2023/06/25 09:47:29;;;;;;;3.13;2.70;;;;;;;43.55;21.98;101462.97;4941696;29;20019;-61
2023/06/25 09:49:55;;;;;;;2.67;2.40;;;;;;;43.58;22.12;101465.13;4941771;29;20027;-61
2023/06/25 09:52:22;;;;;;;5.05;3.03;;;;;;;43.63;22.59;101473.41;4938298;28;20028;-61
2023/06/25 09:54:48;;;;;;;2.55;2.35;;;;;;;43.71;21.88;101455.63;4937210;28;20031;-61
2023/06/25 09:57:16;;;;;;;2.83;2.28;;;;;;;43.88;22.26;101466.06;4921139;28;20543;-61
2023/06/25 09:59:42;;;;;;;4.50;2.33;;;;;;;44.13;22.16;101461.50;4937027;28;20035;-61
2023/06/25 10:02:07;;;;;;;3.13;2.60;;;;;;;44.49;21.54;101454.16;4938520;29;20043;-61
2023/06/25 10:04:34;;;;;;;58.35;55.25;;;;;;;45.01;21.18;101463.13;4937255;28;20063;-62
2023/06/25 10:07:00;;;;;;;87.53;83.47;;;;;;;45.63;20.78;101448.88;4936759;29;20039;-63
2023/06/25 10:09:26;;;;;;;43.42;41.42;;;;;;;46.44;20.60;101455.75;4952621;28;20071;-63
2023/06/25 10:11:52;;;;;;;3.45;2.65;;;;;;;47.46;19.69;101450.41;4921180;29;20028;-63
2023/06/25 10:14:18;;;;;;;2.58;2.25;;;;;;;48.58;18.86;101446.06;4936617;29;20496;-62
2023/06/25 10:16:52;;;;;;;7.80;3.65;;;;;;;49.08;18.15;101439.47;4952744;28;20087;-62
2023/06/25 10:19:22;;;;;;;3.15;2.40;;;;;;;48.70;18.65;101443.06;4953036;28;20028;-62
2023/06/25 10:22:03;;;;;;;2.95;2.65;;;;;;;48.22;19.06;101438.66;4936560;29;20072;-63
2023/06/25 10:24:47;;;;;;;;;;;;;;;47.90;19.85;101437.84;4937243;29;20103;-63
2023/06/25 10:27:25;;;;;;;2.90;2.70;;;;;;;47.54;19.34;101437.25;4920826;29;20017;-64
2023/06/25 10:29:53;;;;;;;2.83;2.63;;;;;;;47.33;19.75;101426.91;4938004;29;20087;-61
2023/06/25 10:32:29;;;;;;;3.78;3.40;;;;;;;47.23;19.32;101433.13;4938046;29;20032;-61
2023/06/25 10:35:03;;;;;;;3.33;3.03;;;;;;;47.15;19.10;101421.94;4936784;29;20040;-63
2023/06/25 10:37:30;;;;;;;3.03;2.72;;;;;;;47.06;19.36;101416.38;4936417;29;20131;-62
2023/06/25 10:40:07;;;;;;;3.85;3.08;;;;;;;47.09;19.37;101415.66;4936662;29;20035;-61
2023/06/25 10:42:32;;;;;;;8.27;3.30;;;;;;;47.16;19.42;101415.88;4937407;29;20187;-61
2023/06/25 10:45:01;;;;;;;3.75;3.45;;;;;;;47.16;18.90;101415.88;4936242;29;20118;-62
2023/06/25 10:47:27;;;;;;;4.07;3.63;;;;;;;47.23;19.15;101410.41;4936357;28;20036;-63
2023/06/25 10:49:52;;;;;;;4.47;3.80;;;;;;;47.35;19.30;101406.69;4937343;28;20035;-63
2023/06/25 10:52:18;;;;;;;4.00;3.50;;;;;;;47.51;19.19;101410.38;4952238;28;20044;-62
2023/06/25 10:54:43;;;;;;;5.10;3.95;;;;;;;47.64;18.99;101413.97;4936522;28;20118;-64
2023/06/25 10:57:13;;;;;;;3.20;2.90;;;;;;;47.74;18.98;101408.56;4936772;28;20127;-62
2023/06/25 10:59:40;;;;;;;3.42;3.00;;;;;;;47.88;18.72;101408.16;4936183;28;20500;-62
2023/06/25 11:02:19;;;;;;;3.55;2.92;;;;;;;48.03;18.68;101398.75;4934783;29;20055;-62
2023/06/25 11:04:52;;;;;;;4.30;3.30;;;;;;;48.13;18.55;101403.06;4935348;28;20047;-61
2023/06/25 11:07:19;;;;;;;3.50;3.20;;;;;;;48.21;18.64;101397.22;4936011;28;20075;-61
2023/06/25 11:09:46;;;;;;;2.85;2.58;;;;;;;48.35;18.43;101394.69;4936187;28;20110;-61
2023/06/25 11:12:11;;;;;;;3.40;2.65;;;;;;;48.48;18.44;101387.69;4935845;28;20055;-61
2023/06/25 11:14:37;;;;;;;3.40;3.03;;;;;;;48.58;18.46;101388.31;4951564;28;20503;-61
2023/06/25 11:17:02;;;;;;;5.30;2.80;;;;;;;48.63;18.20;101383.16;4935916;28;20119;-61
2023/06/25 11:19:29;;;;;;;4.20;2.50;;;;;;;48.61;18.01;101379.84;4935837;28;20099;-63